KAY53 LYTV-LOWS
Flight info
| Callsign | KAY53 |
|---|---|
| Flight time | 1h 13m |
| Altitude | 38000 |
| Route | TIBRI DCT NERRA DCT OKLAX DCT DABAR DCT DARZA DCT BERTA DCT INGID DCT RASTA RASTA2R |
| Aircraft | A319/M-SDE3FGHIRWY/LB1 |
Departure
| Time | 2026-05-09 20:02 |
|---|---|
| Airport | Tivat Airport (LYTV) |
Arrival
| Time | 2026-05-09 21:16 |
|---|---|
| Airport | Salzburg Airport (LOWS) |
| Time | Latitude | Longitude | Altitude | Speed | Heading |
|---|---|---|---|---|---|
| 2026-05-09 19:42 | 42.41246 | 18.71654 | 8 ft | 0 kts | 175° |
| 2026-05-09 20:00 | 42.41232 | 18.71638 | 7 ft | 6 kts | 249° |
| 2026-05-09 20:00 | 42.41265 | 18.71563 | 4 ft | 13 kts | 319° |
| 2026-05-09 20:01 | 42.41330 | 18.71495 | 3 ft | 7 kts | 322° |
| 2026-05-09 20:01 | 42.41357 | 18.71432 | 3 ft | 10 kts | 274° |
| 2026-05-09 20:01 | 42.41313 | 18.71353 | 2 ft | 10 kts | 201° |
| 2026-05-09 20:01 | 42.41238 | 18.71420 | 1 ft | 25 kts | 139° |
| 2026-05-09 20:02 | 42.40860 | 18.71864 | 4 ft | 115 kts | 139° |
| 2026-05-09 20:02 | 42.40122 | 18.72731 | 370 ft | 148 kts | 140° |
| 2026-05-09 20:02 | 42.39338 | 18.73661 | 1205 ft | 151 kts | 139° |
| 2026-05-09 20:03 | 42.37287 | 18.74961 | 2496 ft | 186 kts | 163° |
| 2026-05-09 20:03 | 42.35973 | 18.75484 | 3042 ft | 213 kts | 163° |
| 2026-05-09 20:03 | 42.34477 | 18.76084 | 3786 ft | 233 kts | 163° |
| 2026-05-09 20:03 | 42.32905 | 18.76715 | 4873 ft | 238 kts | 162° |
| 2026-05-09 20:04 | 42.31295 | 18.77366 | 5968 ft | 244 kts | 162° |
| 2026-05-09 20:04 | 42.29657 | 18.78034 | 7058 ft | 248 kts | 162° |
| 2026-05-09 20:04 | 42.27948 | 18.78502 | 8050 ft | 257 kts | 179° |
| 2026-05-09 20:04 | 42.26124 | 18.77992 | 8701 ft | 281 kts | 207° |
| 2026-05-09 20:05 | 42.24631 | 18.76262 | 9591 ft | 290 kts | 237° |
| 2026-05-09 20:05 | 42.23951 | 18.73713 | 10545 ft | 293 kts | 268° |
| 2026-05-09 20:05 | 42.24295 | 18.71003 | 11308 ft | 305 kts | 295° |
| 2026-05-09 20:05 | 42.25632 | 18.68679 | 11734 ft | 328 kts | 320° |
| 2026-05-09 20:06 | 42.27493 | 18.66831 | 12581 ft | 336 kts | 326° |
| 2026-05-09 20:06 | 42.29482 | 18.65129 | 13519 ft | 341 kts | 329° |
| 2026-05-09 20:06 | 42.31538 | 18.63475 | 14374 ft | 347 kts | 329° |
| 2026-05-09 20:06 | 42.33623 | 18.61801 | 15219 ft | 351 kts | 329° |
| 2026-05-09 20:07 | 42.35720 | 18.60072 | 16080 ft | 355 kts | 328° |
| 2026-05-09 20:07 | 42.37820 | 18.58290 | 16916 ft | 359 kts | 327° |
| 2026-05-09 20:07 | 42.39902 | 18.56393 | 17761 ft | 363 kts | 321° |
| 2026-05-09 20:07 | 42.41711 | 18.53992 | 18557 ft | 367 kts | 309° |
| 2026-05-09 20:08 | 42.43182 | 18.51153 | 19294 ft | 370 kts | 303° |
| 2026-05-09 20:08 | 42.46054 | 18.45330 | 20876 ft | 374 kts | 303° |
| 2026-05-09 20:08 | 42.47513 | 18.42402 | 21652 ft | 376 kts | 303° |
| 2026-05-09 20:09 | 42.48981 | 18.39459 | 22431 ft | 378 kts | 303° |
| 2026-05-09 20:09 | 42.50454 | 18.36499 | 23184 ft | 380 kts | 303° |
| 2026-05-09 20:09 | 42.51932 | 18.33516 | 23872 ft | 382 kts | 302° |
| 2026-05-09 20:09 | 42.53414 | 18.30510 | 24445 ft | 385 kts | 302° |
| 2026-05-09 20:10 | 42.54907 | 18.27472 | 24976 ft | 389 kts | 302° |
| 2026-05-09 20:10 | 42.56414 | 18.24400 | 25474 ft | 394 kts | 302° |
| 2026-05-09 20:10 | 42.57939 | 18.21295 | 25951 ft | 398 kts | 302° |
| 2026-05-09 20:10 | 42.59483 | 18.18152 | 26451 ft | 402 kts | 302° |
| 2026-05-09 20:11 | 42.61042 | 18.14985 | 26950 ft | 406 kts | 302° |
| 2026-05-09 20:11 | 42.62618 | 18.11786 | 27446 ft | 409 kts | 302° |
| 2026-05-09 20:11 | 42.64198 | 18.08569 | 27938 ft | 413 kts | 302° |
| 2026-05-09 20:11 | 42.65797 | 18.05304 | 28420 ft | 417 kts | 302° |
| 2026-05-09 20:12 | 42.67407 | 18.02009 | 28888 ft | 420 kts | 302° |
| 2026-05-09 20:12 | 42.69016 | 17.98712 | 29343 ft | 424 kts | 302° |
| 2026-05-09 20:12 | 42.70650 | 17.95362 | 29788 ft | 427 kts | 302° |
| 2026-05-09 20:12 | 42.72299 | 17.91981 | 30203 ft | 430 kts | 302° |
| 2026-05-09 20:13 | 42.73960 | 17.88575 | 30576 ft | 433 kts | 302° |
| 2026-05-09 20:13 | 42.75628 | 17.85150 | 30943 ft | 436 kts | 302° |
| 2026-05-09 20:13 | 42.77306 | 17.81694 | 31308 ft | 438 kts | 302° |
| 2026-05-09 20:13 | 42.78987 | 17.78219 | 31669 ft | 441 kts | 302° |
| 2026-05-09 20:14 | 42.80669 | 17.74738 | 32163 ft | 440 kts | 302° |
| 2026-05-09 20:14 | 42.82348 | 17.71265 | 32696 ft | 438 kts | 302° |
| 2026-05-09 20:14 | 42.84019 | 17.67804 | 33218 ft | 437 kts | 302° |
| 2026-05-09 20:14 | 42.85668 | 17.64399 | 33740 ft | 436 kts | 302° |
| 2026-05-09 20:15 | 42.87358 | 17.60908 | 34212 ft | 435 kts | 301° |
| 2026-05-09 20:15 | 42.88999 | 17.57512 | 34667 ft | 434 kts | 301° |
| 2026-05-09 20:15 | 42.90709 | 17.54137 | 35159 ft | 433 kts | 306° |
| 2026-05-09 20:15 | 42.92689 | 17.51039 | 35659 ft | 432 kts | 309° |
| 2026-05-09 20:16 | 42.94692 | 17.47997 | 36155 ft | 430 kts | 309° |
| 2026-05-09 20:16 | 42.96686 | 17.44967 | 36647 ft | 428 kts | 309° |
| 2026-05-09 20:16 | 42.98665 | 17.41952 | 37134 ft | 425 kts | 309° |
| 2026-05-09 20:16 | 43.00631 | 17.38947 | 37622 ft | 423 kts | 309° |
| 2026-05-09 20:17 | 43.02589 | 17.35955 | 37999 ft | 422 kts | 309° |
| 2026-05-09 20:17 | 43.06477 | 17.30000 | 38081 ft | 418 kts | 309° |
| 2026-05-09 20:18 | 43.10337 | 17.24081 | 38084 ft | 416 kts | 309° |
| 2026-05-09 20:18 | 43.13542 | 17.19157 | 38083 ft | 417 kts | 309° |
| 2026-05-09 20:19 | 43.17397 | 17.13212 | 38081 ft | 417 kts | 309° |
| 2026-05-09 20:19 | 43.21251 | 17.07255 | 38082 ft | 418 kts | 309° |
| 2026-05-09 20:20 | 43.25113 | 17.01296 | 38088 ft | 418 kts | 309° |
| 2026-05-09 20:20 | 43.28969 | 16.95333 | 38092 ft | 418 kts | 309° |
| 2026-05-09 20:21 | 43.32816 | 16.89359 | 38094 ft | 417 kts | 308° |
| 2026-05-09 20:21 | 43.36656 | 16.83380 | 38139 ft | 417 kts | 308° |
| 2026-05-09 20:22 | 43.40491 | 16.77395 | 38120 ft | 417 kts | 308° |
| 2026-05-09 20:22 | 43.44327 | 16.71395 | 38109 ft | 418 kts | 308° |
| 2026-05-09 20:23 | 43.48166 | 16.65399 | 38103 ft | 417 kts | 308° |
| 2026-05-09 20:23 | 43.51998 | 16.59397 | 38089 ft | 417 kts | 308° |
| 2026-05-09 20:24 | 43.55821 | 16.53393 | 38091 ft | 417 kts | 308° |
| 2026-05-09 20:24 | 43.59639 | 16.47382 | 38092 ft | 416 kts | 308° |
| 2026-05-09 20:25 | 43.63445 | 16.41366 | 38089 ft | 416 kts | 308° |
| 2026-05-09 20:25 | 43.67244 | 16.35341 | 38090 ft | 416 kts | 308° |
| 2026-05-09 20:26 | 43.71046 | 16.29321 | 38095 ft | 415 kts | 308° |
| 2026-05-09 20:26 | 43.74844 | 16.23302 | 38097 ft | 415 kts | 308° |
| 2026-05-09 20:27 | 43.78629 | 16.17274 | 38093 ft | 415 kts | 308° |
| 2026-05-09 20:27 | 43.82404 | 16.11249 | 38091 ft | 414 kts | 308° |
| 2026-05-09 20:28 | 43.86307 | 16.05369 | 38093 ft | 417 kts | 316° |
| 2026-05-09 20:28 | 43.91264 | 16.01078 | 38093 ft | 424 kts | 328° |
| 2026-05-09 20:29 | 43.99106 | 15.95503 | 38085 ft | 424 kts | 328° |
| 2026-05-09 20:29 | 44.04351 | 15.91741 | 38087 ft | 424 kts | 328° |
| 2026-05-09 20:30 | 44.09599 | 15.87976 | 38093 ft | 425 kts | 328° |
| 2026-05-09 20:30 | 44.14855 | 15.84203 | 38088 ft | 425 kts | 328° |
| 2026-05-09 20:31 | 44.20112 | 15.80417 | 38087 ft | 426 kts | 328° |
| 2026-05-09 20:31 | 44.25373 | 15.76627 | 38092 ft | 426 kts | 328° |
| 2026-05-09 20:32 | 44.30638 | 15.72829 | 38119 ft | 426 kts | 328° |
| 2026-05-09 20:32 | 44.35912 | 15.69015 | 38102 ft | 427 kts | 328° |
| 2026-05-09 20:33 | 44.41194 | 15.65188 | 38104 ft | 428 kts | 328° |
| 2026-05-09 20:33 | 44.46478 | 15.61346 | 38103 ft | 428 kts | 328° |
| 2026-05-09 20:34 | 44.51758 | 15.57497 | 38111 ft | 428 kts | 328° |
| 2026-05-09 20:34 | 44.57038 | 15.53638 | 38123 ft | 428 kts | 328° |
| 2026-05-09 20:35 | 44.62325 | 15.49785 | 38104 ft | 428 kts | 328° |
| 2026-05-09 20:35 | 44.67611 | 15.45922 | 38104 ft | 428 kts | 328° |
| 2026-05-09 20:36 | 44.72885 | 15.42048 | 38134 ft | 428 kts | 328° |
| 2026-05-09 20:36 | 44.78165 | 15.38166 | 38114 ft | 429 kts | 328° |
| 2026-05-09 20:37 | 44.83452 | 15.34261 | 38109 ft | 429 kts | 328° |
| 2026-05-09 20:37 | 44.88739 | 15.30346 | 38111 ft | 429 kts | 327° |
| 2026-05-09 20:38 | 44.94104 | 15.26624 | 38113 ft | 434 kts | 335° |
| 2026-05-09 20:38 | 44.99823 | 15.23981 | 38126 ft | 436 kts | 337° |
| 2026-05-09 20:39 | 45.05583 | 15.21311 | 38120 ft | 436 kts | 337° |
| 2026-05-09 20:39 | 45.11344 | 15.18622 | 38118 ft | 436 kts | 337° |
| 2026-05-09 20:40 | 45.17111 | 15.15933 | 38133 ft | 436 kts | 337° |
| 2026-05-09 20:40 | 45.22886 | 15.13240 | 38123 ft | 437 kts | 337° |
| 2026-05-09 20:41 | 45.28666 | 15.10534 | 38121 ft | 438 kts | 337° |
| 2026-05-09 20:41 | 45.34486 | 15.07795 | 38124 ft | 438 kts | 337° |
| 2026-05-09 20:42 | 45.40231 | 15.05085 | 38137 ft | 438 kts | 337° |
| 2026-05-09 20:42 | 45.46021 | 15.02353 | 38137 ft | 438 kts | 337° |
| 2026-05-09 20:43 | 45.51829 | 14.99675 | 38130 ft | 439 kts | 339° |
| 2026-05-09 20:43 | 45.57732 | 14.97332 | 38138 ft | 441 kts | 340° |
| 2026-05-09 20:44 | 45.63672 | 14.95116 | 38152 ft | 441 kts | 340° |
| 2026-05-09 20:44 | 45.69595 | 14.92829 | 38146 ft | 441 kts | 340° |
| 2026-05-09 20:45 | 45.75505 | 14.90480 | 38142 ft | 441 kts | 340° |
| 2026-05-09 20:45 | 45.81411 | 14.88118 | 38141 ft | 441 kts | 340° |
| 2026-05-09 20:46 | 45.87321 | 14.85764 | 38141 ft | 441 kts | 340° |
| 2026-05-09 20:46 | 45.93235 | 14.83400 | 38143 ft | 441 kts | 340° |
| 2026-05-09 20:47 | 45.99146 | 14.81033 | 38140 ft | 441 kts | 340° |
| 2026-05-09 20:47 | 46.05058 | 14.78668 | 38148 ft | 441 kts | 340° |
| 2026-05-09 20:48 | 46.10969 | 14.76287 | 38142 ft | 441 kts | 340° |
| 2026-05-09 20:48 | 46.16886 | 14.73898 | 38137 ft | 441 kts | 340° |
| 2026-05-09 20:49 | 46.22802 | 14.71518 | 38163 ft | 441 kts | 340° |
| 2026-05-09 20:49 | 46.28719 | 14.69125 | 38150 ft | 441 kts | 339° |
| 2026-05-09 20:50 | 46.34592 | 14.66743 | 38132 ft | 441 kts | 340° |
| 2026-05-09 20:50 | 46.40487 | 14.64358 | 38137 ft | 441 kts | 340° |
| 2026-05-09 20:51 | 46.46090 | 14.61040 | 38157 ft | 431 kts | 324° |
| 2026-05-09 20:51 | 46.50855 | 14.55876 | 38143 ft | 420 kts | 317° |
| 2026-05-09 20:52 | 46.55396 | 14.50760 | 38162 ft | 410 kts | 317° |
| 2026-05-09 20:52 | 46.59892 | 14.45681 | 37834 ft | 409 kts | 317° |
| 2026-05-09 20:53 | 46.62133 | 14.43142 | 37208 ft | 408 kts | 317° |
| 2026-05-09 20:53 | 46.64375 | 14.40599 | 36446 ft | 408 kts | 317° |
| 2026-05-09 20:53 | 46.66615 | 14.38053 | 35613 ft | 409 kts | 317° |
| 2026-05-09 20:53 | 46.68861 | 14.35493 | 34719 ft | 411 kts | 317° |
| 2026-05-09 20:54 | 46.71113 | 14.32922 | 33925 ft | 409 kts | 317° |
| 2026-05-09 20:54 | 46.73343 | 14.30383 | 32989 ft | 407 kts | 317° |
| 2026-05-09 20:54 | 46.75581 | 14.27831 | 31816 ft | 410 kts | 318° |
| 2026-05-09 20:54 | 46.77825 | 14.25265 | 30671 ft | 413 kts | 318° |
| 2026-05-09 20:55 | 46.80077 | 14.22690 | 29855 ft | 407 kts | 319° |
| 2026-05-09 20:55 | 46.82285 | 14.20170 | 29186 ft | 399 kts | 319° |
| 2026-05-09 20:55 | 46.84445 | 14.17705 | 28526 ft | 390 kts | 319° |
| 2026-05-09 20:55 | 46.86564 | 14.15280 | 27872 ft | 383 kts | 319° |
| 2026-05-09 20:56 | 46.88642 | 14.12893 | 27238 ft | 377 kts | 320° |
| 2026-05-09 20:56 | 46.92710 | 14.08196 | 25996 ft | 368 kts | 320° |
| 2026-05-09 20:56 | 46.94713 | 14.05881 | 25395 ft | 366 kts | 320° |
| 2026-05-09 20:57 | 46.96712 | 14.03573 | 24773 ft | 366 kts | 321° |
| 2026-05-09 20:57 | 46.98696 | 14.01282 | 24189 ft | 365 kts | 321° |
| 2026-05-09 20:57 | 47.00692 | 13.98977 | 23577 ft | 366 kts | 321° |
| 2026-05-09 20:57 | 47.02660 | 13.96703 | 22975 ft | 364 kts | 321° |
| 2026-05-09 20:58 | 47.04637 | 13.94415 | 22446 ft | 360 kts | 321° |
| 2026-05-09 20:58 | 47.06588 | 13.92151 | 21926 ft | 357 kts | 321° |
| 2026-05-09 20:58 | 47.08522 | 13.89900 | 21431 ft | 353 kts | 321° |
| 2026-05-09 20:58 | 47.10441 | 13.87666 | 20950 ft | 351 kts | 321° |
| 2026-05-09 20:59 | 47.12348 | 13.85449 | 20463 ft | 349 kts | 321° |
| 2026-05-09 20:59 | 47.14250 | 13.83241 | 19723 ft | 353 kts | 321° |
| 2026-05-09 20:59 | 47.16202 | 13.80971 | 18816 ft | 362 kts | 320° |
| 2026-05-09 21:00 | 47.20218 | 13.76291 | 17211 ft | 368 kts | 320° |
| 2026-05-09 21:00 | 47.22212 | 13.73963 | 16651 ft | 363 kts | 321° |
| 2026-05-09 21:00 | 47.24167 | 13.71677 | 16103 ft | 356 kts | 320° |
| 2026-05-09 21:00 | 47.26101 | 13.69416 | 15527 ft | 354 kts | 320° |
| 2026-05-09 21:01 | 47.27998 | 13.67136 | 14952 ft | 351 kts | 318° |
| 2026-05-09 21:01 | 47.29828 | 13.64772 | 14384 ft | 349 kts | 317° |
| 2026-05-09 21:01 | 47.31613 | 13.62365 | 13803 ft | 347 kts | 316° |
| 2026-05-09 21:02 | 47.35108 | 13.57571 | 12617 ft | 340 kts | 316° |
| 2026-05-09 21:02 | 47.36837 | 13.55215 | 12027 ft | 337 kts | 316° |
| 2026-05-09 21:02 | 47.38726 | 13.53137 | 11231 ft | 341 kts | 325° |
| 2026-05-09 21:02 | 47.40680 | 13.51225 | 10948 ft | 329 kts | 325° |
| 2026-05-09 21:03 | 47.42542 | 13.49417 | 10876 ft | 312 kts | 325° |
| 2026-05-09 21:03 | 47.44313 | 13.47696 | 10778 ft | 298 kts | 325° |
| 2026-05-09 21:03 | 47.46009 | 13.46043 | 10653 ft | 286 kts | 325° |
| 2026-05-09 21:03 | 47.47629 | 13.44460 | 10525 ft | 274 kts | 324° |
| 2026-05-09 21:04 | 47.48689 | 13.43420 | 10442 ft | 267 kts | 324° |
| 2026-05-09 21:04 | 47.50193 | 13.41940 | 10324 ft | 251 kts | 324° |
| 2026-05-09 21:04 | 47.51598 | 13.40557 | 10217 ft | 234 kts | 324° |
| 2026-05-09 21:04 | 47.52917 | 13.39261 | 10110 ft | 221 kts | 323° |
| 2026-05-09 21:05 | 47.54005 | 13.37756 | 10020 ft | 209 kts | 306° |
| 2026-05-09 21:05 | 47.54728 | 13.35906 | 9685 ft | 209 kts | 291° |
| 2026-05-09 21:05 | 47.55273 | 13.33953 | 9336 ft | 207 kts | 291° |
| 2026-05-09 21:05 | 47.55828 | 13.31995 | 9017 ft | 205 kts | 291° |
| 2026-05-09 21:06 | 47.56380 | 13.30039 | 8683 ft | 202 kts | 291° |
| 2026-05-09 21:06 | 47.56913 | 13.28156 | 8379 ft | 201 kts | 291° |
| 2026-05-09 21:06 | 47.57452 | 13.26254 | 8067 ft | 199 kts | 291° |
| 2026-05-09 21:06 | 47.57989 | 13.24365 | 7761 ft | 199 kts | 290° |
| 2026-05-09 21:07 | 47.58523 | 13.22478 | 7449 ft | 199 kts | 290° |
| 2026-05-09 21:07 | 47.59135 | 13.20635 | 7142 ft | 201 kts | 298° |
| 2026-05-09 21:07 | 47.59967 | 13.18944 | 6816 ft | 205 kts | 309° |
| 2026-05-09 21:07 | 47.60988 | 13.17465 | 6486 ft | 207 kts | 319° |
| 2026-05-09 21:08 | 47.62173 | 13.16258 | 6124 ft | 207 kts | 330° |
| 2026-05-09 21:08 | 47.63518 | 13.15496 | 5794 ft | 207 kts | 340° |
| 2026-05-09 21:08 | 47.64874 | 13.14787 | 5451 ft | 207 kts | 340° |
| 2026-05-09 21:08 | 47.66250 | 13.14059 | 4939 ft | 214 kts | 340° |
| 2026-05-09 21:09 | 47.67651 | 13.13317 | 4394 ft | 211 kts | 340° |
| 2026-05-09 21:09 | 47.68983 | 13.12611 | 4170 ft | 194 kts | 341° |
| 2026-05-09 21:09 | 47.70189 | 13.11968 | 4054 ft | 174 kts | 342° |
| 2026-05-09 21:09 | 47.71224 | 13.11340 | 3893 ft | 153 kts | 334° |
| 2026-05-09 21:10 | 47.72069 | 13.10462 | 3624 ft | 144 kts | 320° |
| 2026-05-09 21:10 | 47.72757 | 13.09429 | 3413 ft | 138 kts | 316° |
| 2026-05-09 21:10 | 47.73510 | 13.08583 | 3200 ft | 134 kts | 331° |
| 2026-05-09 21:10 | 47.74325 | 13.07944 | 3115 ft | 132 kts | 339° |
| 2026-05-09 21:11 | 47.75165 | 13.07424 | 2995 ft | 131 kts | 338° |
| 2026-05-09 21:12 | 47.78507 | 13.05292 | 3059 ft | 131 kts | 340° |
| 2026-05-09 21:12 | 47.79352 | 13.04786 | 3034 ft | 131 kts | 340° |
| 2026-05-09 21:12 | 47.80199 | 13.04295 | 2989 ft | 130 kts | 341° |
| 2026-05-09 21:12 | 47.81036 | 13.03778 | 2985 ft | 131 kts | 339° |
| 2026-05-09 21:13 | 47.81852 | 13.03259 | 2952 ft | 130 kts | 339° |
| 2026-05-09 21:13 | 47.82682 | 13.02725 | 2940 ft | 130 kts | 339° |
| 2026-05-09 21:13 | 47.83513 | 13.02200 | 2958 ft | 130 kts | 340° |
| 2026-05-09 21:13 | 47.84328 | 13.01597 | 2926 ft | 135 kts | 320° |
| 2026-05-09 21:14 | 47.84638 | 13.00326 | 2897 ft | 137 kts | 264° |
| 2026-05-09 21:14 | 47.84167 | 12.99148 | 2783 ft | 135 kts | 212° |
| 2026-05-09 21:14 | 47.83334 | 12.98526 | 2537 ft | 135 kts | 197° |
| 2026-05-09 21:14 | 47.82442 | 12.98399 | 2249 ft | 126 kts | 167° |
| 2026-05-09 21:15 | 47.81652 | 12.98906 | 1942 ft | 122 kts | 152° |
| 2026-05-09 21:15 | 47.80883 | 12.99408 | 1649 ft | 119 kts | 157° |
| 2026-05-09 21:15 | 47.80143 | 12.99886 | 1438 ft | 112 kts | 157° |
| 2026-05-09 21:15 | 47.79517 | 13.00276 | 1423 ft | 78 kts | 156° |
| 2026-05-09 21:16 | 47.79241 | 13.00453 | 1421 ft | 19 kts | 156° |
| 2026-05-09 21:16 | 47.79124 | 13.00489 | 1422 ft | 12 kts | 210° |
| 2026-05-09 21:16 | 47.79118 | 13.00375 | 1420 ft | 12 kts | 277° |
| 2026-05-09 21:16 | 47.79140 | 13.00255 | 1420 ft | 13 kts | 308° |
| 2026-05-09 21:17 | 47.79209 | 13.00205 | 1420 ft | 9 kts | 338° |
| 2026-05-09 21:17 | 47.79276 | 13.00162 | 1420 ft | 12 kts | 336° |
| 2026-05-09 21:17 | 47.79328 | 13.00129 | 1420 ft | 7 kts | 337° |
| 2026-05-09 21:17 | 47.79353 | 13.00062 | 1420 ft | 10 kts | 260° |
| 2026-05-09 21:18 | 47.79330 | 12.99974 | 1420 ft | 8 kts | 247° |
| 2026-05-09 21:18 | 47.79308 | 12.99925 | 1420 ft | 5 kts | 203° |
| 2026-05-09 21:18 | 47.79266 | 12.99925 | 1420 ft | 7 kts | 205° |
| 2026-05-09 21:18 | 47.79253 | 12.99855 | 1420 ft | 5 kts | 285° |
| 2026-05-09 21:19 | 47.79258 | 12.99820 | 1420 ft | 0 kts | 283° |